Charlotte Court House, Virginia
Current Conditions -  °F | °C
As of 10:55 PM on Friday 24 Oct 2014 (Local Time) from KCXE Reporting Station
Clear Clear  
Wind Chill: 49°   Ceiling: Unl
Heat Index: 49°   Visibility: 10mi
Dew Point: 49°   Wind: 0mph
Humidity: 99%   Direction: NA
Pressure: 29.98"   Gusts: NA
Location:  37.06°N, 78.64°W
Report Text: KCXE 250255Z AUTO 00000KT 10SM CLR 09/09 A2998 RMK AO1 T00940093
Loading
Personal Weather Stations






























Interactive Weather Map
Tropical Storm Tracking
New forecast layout! Learn more

10-Day Weather Forecast

Advertisements
Track Severe Weather on mobile